Terminal Aerodrome Forecast
Issued by NWS

Home | Current Version | Previous Version | Text Only | Print | Product List | Glossary On
Versions: 1 2 3 4 5 6 7 8 9 10 11 12 13 14
000
FTUS43 KGRR 222300
TAFBTL
TAF
KBTL 222340Z 2300/2324 22012KT P6SM SCT040 BKN070
     FM230200 23010KT P6SM VCTS SCT025CB BKN040
      TEMPO 2304/2306 2SM TSRA BR OVC025CB
     FM230600 33010G18KT P6SM FEW050 BKN120
     FM230800 36010KT 4SM HZ SCT120
     FM231400 35012G20KT P6SM BKN040=

USA.gov is the U.S. government's official web portal to all federal, state and local government web resources and services.